Palflot-5 — UBHC — position and weather

sailwx.info

Track history (hours):
 
Tides and Currents Weather Stations Pressure Air Temp Water Temp Dewpoint Dewpoint Depression Visibility Wind Speed Wind Dir Waves Ship Positions

Palflot-5

Last reported at 2015-Jan-27 01:17 UTC. Time now 2015-Jan-28 14:16 UTC.
Position N 44°33' E 037°31'.

Length 122 m; draft 2.4 m.

Type: Tanker. MMSI: 273443040.

Date/timePositionNaut miles runAvg speedWind from/ knotsBaromVisibWave heightAir tempDewpointWater temp
2015-Jan-27 01:17N 44°33' E 037°31'6 7.6
2015-Jan-27 00:31N 44°30' E 037°38'8 7.5
2015-Jan-26 23:27N 44°26' E 037°48'41 6.9
2015-Jan-26 17:29N 44°07' E 038°38'8 8.6
2015-Jan-26 16:33N 44°03' E 038°48'8 8.3
2015-Jan-26 15:33N 43°58' E 038°58'8 8.4
2015-Jan-26 14:33N 43°52' E 039°05'8 7.6
2015-Jan-26 13:33N 43°46' E 039°12'  
2015-Jan-23 12:18N 43°31' E 039°28'20 7.0
2015-Jan-23 09:24N 43°47' E 039°11'6 6.5
2015-Jan-23 08:33N 43°51' E 039°06'6 6.0
2015-Jan-23 07:33N 43°56' E 039°01'6 6.3
2015-Jan-23 06:33N 44°00' E 038°55'6 6.4
2015-Jan-23 05:34N 44°03' E 038°47'6 6.3
2015-Jan-23 04:33N 44°06' E 038°39'37 6.1
2015-Jan-22 22:30N 44°26' E 037°55'6 5.9
2015-Jan-22 21:33N 44°30' E 037°50'5 5.4
2015-Jan-22 20:33N 44°36' E 037°49'6 6.1
2015-Jan-22 19:33N 44°42' E 037°49'2 2.3
2015-Jan-22 18:33N 44°44' E 037°47'0 0.0
2015-Jan-22 17:30N 44°44' E 037°47'0 0.0
2015-Jan-22 16:33N 44°44' E 037°47'0 0.0
2015-Jan-22 15:33N 44°44' E 037°47'0 0.0
2015-Jan-22 14:33N 44°44' E 037°47'0 0.0
2015-Jan-22 13:33N 44°44' E 037°47'0 0.0
2015-Jan-22 12:24N 44°44' E 037°47'0 0.0
2015-Jan-22 11:30N 44°44' E 037°47'0 0.0
2015-Jan-22 10:33N 44°44' E 037°47'0 0.0
2015-Jan-22 09:33N 44°44' E 037°47'0 0.0
2015-Jan-22 08:33N 44°44' E 037°47'0 0.0
2015-Jan-22 07:33N 44°44' E 037°47'0 0.0
2015-Jan-22 06:30N 44°44' E 037°47'0 0.0
2015-Jan-22 05:33N 44°44' E 037°47'0 0.0
2015-Jan-22 04:33N 44°44' E 037°47'0 0.0
2015-Jan-22 03:33N 44°44' E 037°47'0 0.0
2015-Jan-22 02:31N 44°44' E 037°47'0 0.0
2015-Jan-22 01:31N 44°44' E 037°47'0 0.0
2015-Jan-22 00:31N 44°44' E 037°47'0 0.0
2015-Jan-21 23:31N 44°44' E 037°47'0 0.0
2015-Jan-21 22:49N 44°44' E 037°47'0 0.0
2015-Jan-21 22:46N 44°44' E 037°47'0 0.0
2015-Jan-21 22:31N 44°44' E 037°47'0 0.0
2015-Jan-21 21:31N 44°44' E 037°47'0 0.0
2015-Jan-21 20:31N 44°44' E 037°47'0 0.0
2015-Jan-21 19:31N 44°44' E 037°47'0 0.0
2015-Jan-21 18:31N 44°44' E 037°47'0 0.0
2015-Jan-21 17:28N 44°44' E 037°47'0 0.0
2015-Jan-21 16:31N 44°44' E 037°47'0 0.0
2015-Jan-21 15:31N 44°44' E 037°47'0 0.0
2015-Jan-21 14:33N 44°44' E 037°47'1 1.1
2015-Jan-21 13:34N 44°43' E 037°48'6 6.0
2015-Jan-21 12:34N 44°38' E 037°53'0 0.4
2015-Jan-21 11:33N 44°38' E 037°53'1 0.7
2015-Jan-21 10:34N 44°38' E 037°53'1 1.3
2015-Jan-21 09:34N 44°37' E 037°54'2 2.1
2015-Jan-21 08:33N 44°35' E 037°56'0 0.0
2015-Jan-21 07:30N 44°35' E 037°56'0 0.0
2015-Jan-21 06:33N 44°35' E 037°56'0 0.0
2015-Jan-21 05:33N 44°35' E 037°56'0 0.0
2015-Jan-21 04:33N 44°35' E 037°56'0 0.0
2015-Jan-21 03:33N 44°35' E 037°56'0 0.0
2015-Jan-21 02:33N 44°35' E 037°56'0 0.0
2015-Jan-21 01:33N 44°35' E 037°56'0 0.0
2015-Jan-21 00:33N 44°35' E 037°56'0 0.0
2015-Jan-20 23:33N 44°35' E 037°56'0 0.0
2015-Jan-20 22:33N 44°35' E 037°56'0 0.0
2015-Jan-20 21:33N 44°35' E 037°56'0 0.0
2015-Jan-20 20:33N 44°35' E 037°56'1 0.8
2015-Jan-20 19:34N 44°35' E 037°55'6 6.2
2015-Jan-20 18:33N 44°35' E 037°46'7 6.8
2015-Jan-20 17:30N 44°35' E 037°36'110 6.1
2015-Jan-19 23:16N 44°39' E 035°01'5 6.9
2015-Jan-19 22:34N 44°36' E 034°55'7 6.9
2015-Jan-19 21:34N 44°33' E 034°46'7 6.7
2015-Jan-19 20:34N 44°30' E 034°38'7 6.6
2015-Jan-19 19:34N 44°27' E 034°30'7 6.8
2015-Jan-19 18:34N 44°24' E 034°21'7 6.9
2015-Jan-19 17:32N 44°21' E 034°12'  
Track history (hours):
 
Tides and Currents Weather Stations Pressure Air Temp Water Temp Dewpoint Dewpoint Depression Visibility Wind Speed Wind Dir Waves Ship Positions

Palflot-5

Last reported at 2015-Jan-27 01:17 UTC. Time now 2015-Jan-28 14:16 UTC.
Position N 44°33' E 037°31'.

Length 122 m; draft 2.4 m.

Type: Tanker. MMSI: 273443040.

Date/timePositionNaut miles runAvg speedWind from/ knotsBaromVisibWave heightAir tempDewpointWater temp
2015-Jan-27 01:17N 44°33' E 037°31'6 7.6
2015-Jan-27 00:31N 44°30' E 037°38'8 7.5
2015-Jan-26 23:27N 44°26' E 037°48'41 6.9
2015-Jan-26 17:29N 44°07' E 038°38'8 8.6
2015-Jan-26 16:33N 44°03' E 038°48'8 8.3
2015-Jan-26 15:33N 43°58' E 038°58'8 8.4
2015-Jan-26 14:33N 43°52' E 039°05'8 7.6
2015-Jan-26 13:33N 43°46' E 039°12'  
2015-Jan-23 12:18N 43°31' E 039°28'20 7.0
2015-Jan-23 09:24N 43°47' E 039°11'6 6.5
2015-Jan-23 08:33N 43°51' E 039°06'6 6.0
2015-Jan-23 07:33N 43°56' E 039°01'6 6.3
2015-Jan-23 06:33N 44°00' E 038°55'6 6.4
2015-Jan-23 05:34N 44°03' E 038°47'6 6.3
2015-Jan-23 04:33N 44°06' E 038°39'37 6.1
2015-Jan-22 22:30N 44°26' E 037°55'6 5.9
2015-Jan-22 21:33N 44°30' E 037°50'5 5.4
2015-Jan-22 20:33N 44°36' E 037°49'6 6.1
2015-Jan-22 19:33N 44°42' E 037°49'2 2.3
2015-Jan-22 18:33N 44°44' E 037°47'0 0.0
2015-Jan-22 17:30N 44°44' E 037°47'0 0.0
2015-Jan-22 16:33N 44°44' E 037°47'0 0.0
2015-Jan-22 15:33N 44°44' E 037°47'0 0.0
2015-Jan-22 14:33N 44°44' E 037°47'0 0.0
2015-Jan-22 13:33N 44°44' E 037°47'0 0.0
2015-Jan-22 12:24N 44°44' E 037°47'0 0.0
2015-Jan-22 11:30N 44°44' E 037°47'0 0.0
2015-Jan-22 10:33N 44°44' E 037°47'0 0.0
2015-Jan-22 09:33N 44°44' E 037°47'0 0.0
2015-Jan-22 08:33N 44°44' E 037°47'0 0.0
2015-Jan-22 07:33N 44°44' E 037°47'0 0.0
2015-Jan-22 06:30N 44°44' E 037°47'0 0.0
2015-Jan-22 05:33N 44°44' E 037°47'0 0.0
2015-Jan-22 04:33N 44°44' E 037°47'0 0.0
2015-Jan-22 03:33N 44°44' E 037°47'0 0.0
2015-Jan-22 02:31N 44°44' E 037°47'0 0.0
2015-Jan-22 01:31N 44°44' E 037°47'0 0.0
2015-Jan-22 00:31N 44°44' E 037°47'0 0.0
2015-Jan-21 23:31N 44°44' E 037°47'0 0.0
2015-Jan-21 22:49N 44°44' E 037°47'0 0.0
2015-Jan-21 22:46N 44°44' E 037°47'0 0.0
2015-Jan-21 22:31N 44°44' E 037°47'0 0.0
2015-Jan-21 21:31N 44°44' E 037°47'0 0.0
2015-Jan-21 20:31N 44°44' E 037°47'0 0.0
2015-Jan-21 19:31N 44°44' E 037°47'0 0.0
2015-Jan-21 18:31N 44°44' E 037°47'0 0.0
2015-Jan-21 17:28N 44°44' E 037°47'0 0.0
2015-Jan-21 16:31N 44°44' E 037°47'0 0.0
2015-Jan-21 15:31N 44°44' E 037°47'0 0.0
2015-Jan-21 14:33N 44°44' E 037°47'1 1.1
2015-Jan-21 13:34N 44°43' E 037°48'6 6.0
2015-Jan-21 12:34N 44°38' E 037°53'0 0.4
2015-Jan-21 11:33N 44°38' E 037°53'1 0.7
2015-Jan-21 10:34N 44°38' E 037°53'1 1.3
2015-Jan-21 09:34N 44°37' E 037°54'2 2.1
2015-Jan-21 08:33N 44°35' E 037°56'0 0.0
2015-Jan-21 07:30N 44°35' E 037°56'0 0.0
2015-Jan-21 06:33N 44°35' E 037°56'0 0.0
2015-Jan-21 05:33N 44°35' E 037°56'0 0.0
2015-Jan-21 04:33N 44°35' E 037°56'0 0.0
2015-Jan-21 03:33N 44°35' E 037°56'0 0.0
2015-Jan-21 02:33N 44°35' E 037°56'0 0.0
2015-Jan-21 01:33N 44°35' E 037°56'0 0.0
2015-Jan-21 00:33N 44°35' E 037°56'0 0.0
2015-Jan-20 23:33N 44°35' E 037°56'0 0.0
2015-Jan-20 22:33N 44°35' E 037°56'0 0.0
2015-Jan-20 21:33N 44°35' E 037°56'0 0.0
2015-Jan-20 20:33N 44°35' E 037°56'1 0.8
2015-Jan-20 19:34N 44°35' E 037°55'6 6.2
2015-Jan-20 18:33N 44°35' E 037°46'7 6.8
2015-Jan-20 17:30N 44°35' E 037°36'110 6.1
2015-Jan-19 23:16N 44°39' E 035°01'5 6.9
2015-Jan-19 22:34N 44°36' E 034°55'7 6.9
2015-Jan-19 21:34N 44°33' E 034°46'7 6.7
2015-Jan-19 20:34N 44°30' E 034°38'7 6.6
2015-Jan-19 19:34N 44°27' E 034°30'7 6.8
2015-Jan-19 18:34N 44°24' E 034°21'7 6.9
2015-Jan-19 17:32N 44°21' E 034°12'  

Dump ship's entire track history